Time,TemperatureF,DewpointF,PressureIn,WindDirection,WindDirectionDegrees,WindSpeedMPH,WindSpeedGustMPH,Humidity,HourlyPrecipIn,Conditions,Clouds,dailyrainin,SoftwareType,DateUTC
2014-02-01 00:09:00,-5.3,-9.0,30.09,ESE,108,0.0,0.0,82,0.00,,,0.00,weatherlink.com 1.10,2014-02-01 07:09:00,
2014-02-01 00:24:00,-6.6,-11.0,30.10,ESE,107,0.0,0.0,82,0.00,,,0.00,weatherlink.com 1.10,2014-02-01 07:24:00,
2014-02-01 00:39:00,-7.7,-12.0,30.11,ESE,107,0.0,0.0,82,0.00,,,0.00,weatherlink.com 1.10,2014-02-01 07:39:00,
2014-02-01 00:54:00,-8.4,-13.0,30.11,ESE,107,0.0,0.0,82,0.00,,,0.00,weatherlink.com 1.10,2014-02-01 07:54:00,
2014-02-01 01:09:00,-9.4,-13.0,30.12,ESE,107,0.0,0.0,82,0.00,,,0.00,weatherlink.com 1.10,2014-02-01 08:09:00,
2014-02-01 01:24:00,-10.4,-14.0,30.13,ESE,108,0.0,0.0,82,0.00,,,0.00,weatherlink.com 1.10,2014-02-01 08:24:00,
2014-02-01 01:39:00,-11.1,-15.0,30.14,ESE,107,0.0,0.0,82,0.00,,,0.00,weatherlink.com 1.10,2014-02-01 08:39:00,
2014-02-01 01:54:00,-11.3,-15.0,30.15,ESE,108,0.0,0.0,82,0.00,,,0.00,weatherlink.com 1.10,2014-02-01 08:54:00,
2014-02-01 02:09:00,-11.0,-15.0,30.16,ESE,108,0.0,0.0,83,0.00,,,0.00,weatherlink.com 1.10,2014-02-01 09:09:00,
2014-02-01 02:24:00,-10.6,-14.0,30.16,ESE,108,0.0,0.0,83,0.00,,,0.00,weatherlink.com 1.10,2014-02-01 09:24:00,
2014-02-01 02:39:00,-9.7,-13.0,30.16,ESE,107,0.0,0.0,84,0.00,,,0.00,weatherlink.com 1.10,2014-02-01 09:39:00,
2014-02-01 02:54:00,-8.8,-12.0,30.17,ESE,107,0.0,0.0,84,0.00,,,0.00,weatherlink.com 1.10,2014-02-01 09:54:00,
2014-02-01 03:09:00,-7.9,-12.0,30.17,ESE,107,0.0,0.0,84,0.00,,,0.00,weatherlink.com 1.10,2014-02-01 10:09:00,
2014-02-01 03:24:00,-7.2,-11.0,30.18,ESE,107,0.0,0.0,84,0.00,,,0.00,weatherlink.com 1.10,2014-02-01 10:24:00,
2014-02-01 03:40:00,-6.5,-10.0,30.18,SE,139,0.0,1.0,84,0.00,,,0.00,weatherlink.com 1.10,2014-02-01 10:40:00,
2014-02-01 03:55:00,-6.6,-10.0,30.18,SE,139,0.0,0.0,83,0.00,,,0.00,weatherlink.com 1.10,2014-02-01 10:55:00,
2014-02-01 04:10:00,-6.9,-11.0,30.19,SE,139,0.0,0.0,83,0.00,,,0.00,weatherlink.com 1.10,2014-02-01 11:10:00,
2014-02-01 04:25:00,-7.2,-11.0,30.19,SE,139,0.0,0.0,83,0.00,,,0.00,weatherlink.com 1.10,2014-02-01 11:25:00,
2014-02-01 04:40:00,-7.1,-11.0,30.21,ESE,105,0.0,0.0,83,0.00,,,0.00,weatherlink.com 1.10,2014-02-01 11:40:00,
2014-02-01 04:55:00,-6.1,-9.0,30.22,ESE,105,0.0,0.0,85,0.00,,,0.00,weatherlink.com 1.10,2014-02-01 11:55:00,
2014-02-01 05:11:00,-5.2,-9.0,30.23,ESE,108,0.0,0.0,84,0.00,,,0.00,weatherlink.com 1.10,2014-02-01 12:11:00,
2014-02-01 05:25:00,-5.1,-9.0,30.23,ESE,107,0.0,0.0,83,0.00,,,0.00,weatherlink.com 1.10,2014-02-01 12:25:00,
2014-02-01 05:40:00,-5.4,-9.0,30.24,ESE,107,0.0,0.0,83,0.00,,,0.00,weatherlink.com 1.10,2014-02-01 12:40:00,
2014-02-01 05:55:00,-4.6,-8.0,30.24,ESE,108,0.0,0.0,85,0.00,,,0.00,weatherlink.com 1.10,2014-02-01 12:55:00,
2014-02-01 06:10:00,-3.8,-7.0,30.25,ESE,107,0.0,0.0,84,0.00,,,0.00,weatherlink.com 1.10,2014-02-01 13:10:00,
2014-02-01 06:25:00,-3.6,-7.0,30.25,ESE,108,0.0,0.0,84,0.00,,,0.00,weatherlink.com 1.10,2014-02-01 13:25:00,
2014-02-01 06:40:00,-3.9,-8.0,30.26,ESE,107,0.0,0.0,83,0.00,,,0.00,weatherlink.com 1.10,2014-02-01 13:40:00,
2014-02-01 06:55:00,-4.6,-9.0,30.27,ESE,107,0.0,0.0,83,0.00,,,0.00,weatherlink.com 1.10,2014-02-01 13:55:00,
2014-02-01 07:11:00,-4.4,-8.0,30.28,ESE,107,0.0,0.0,85,0.00,,,0.00,weatherlink.com 1.10,2014-02-01 14:11:00,
2014-02-01 07:26:00,-3.3,-7.0,30.28,ESE,107,0.0,0.0,84,0.00,,,0.00,weatherlink.com 1.10,2014-02-01 14:26:00,
2014-02-01 07:41:00,-5.3,-10.0,30.30,ESE,107,0.0,0.0,81,0.00,,,0.00,weatherlink.com 1.10,2014-02-01 14:41:00,
2014-02-01 07:56:00,-6.6,-11.0,30.31,ESE,107,0.0,0.0,81,0.00,,,0.00,weatherlink.com 1.10,2014-02-01 14:56:00,
2014-02-01 08:11:00,-5.3,-9.0,30.31,ESE,107,0.0,0.0,84,0.00,,,0.00,weatherlink.com 1.10,2014-02-01 15:11:00,
2014-02-01 08:26:00,-1.1,-5.0,30.32,ESE,108,0.0,0.0,85,0.00,,,0.00,weatherlink.com 1.10,2014-02-01 15:26:00,
2014-02-01 08:41:00,3.4,-1.0,30.32,ESE,107,0.0,0.0,83,0.00,,,0.00,weatherlink.com 1.10,2014-02-01 15:41:00,
2014-02-01 08:56:00,7.6,4.0,30.32,SW,235,0.0,0.0,84,0.00,,,0.00,weatherlink.com 1.10,2014-02-01 15:56:00,
2014-02-01 09:11:00,11.5,6.0,30.33,WSW,238,0.0,2.0,79,0.00,,,0.00,weatherlink.com 1.10,2014-02-01 16:11:00,
2014-02-01 09:26:00,11.1,6.0,30.33,WSW,257,0.0,2.0,78,0.00,,,0.00,weatherlink.com 1.10,2014-02-01 16:26:00,
2014-02-01 09:41:00,13.6,8.0,30.33,WSW,249,0.0,2.0,77,0.00,,,0.00,weatherlink.com 1.10,2014-02-01 16:41:00,
2014-02-01 09:56:00,11.5,4.0,30.34,West,269,0.0,3.0,73,0.00,,,0.00,weatherlink.com 1.10,2014-02-01 16:56:00,
2014-02-01 10:11:00,12.0,6.0,30.34,WSW,257,0.0,4.0,75,0.00,,,0.00,weatherlink.com 1.10,2014-02-01 17:11:00,
2014-02-01 10:27:00,11.9,5.0,30.35,NNE,13,0.0,5.0,75,0.00,,,0.00,weatherlink.com 1.10,2014-02-01 17:27:00,
2014-02-01 10:42:00,12.3,6.0,30.35,NNW,333,1.0,3.0,74,0.00,,,0.00,weatherlink.com 1.10,2014-02-01 17:42:00,
2014-02-01 10:58:00,12.7,7.0,30.35,WSW,253,0.0,3.0,76,0.00,,,0.00,weatherlink.com 1.10,2014-02-01 17:58:00,
2014-02-01 11:12:00,13.3,6.0,30.34,WSW,252,0.0,2.0,73,0.00,,,0.00,weatherlink.com 1.10,2014-02-01 18:12:00,
2014-02-01 11:27:00,13.3,6.0,30.34,West,267,0.0,2.0,72,0.00,,,0.00,weatherlink.com 1.10,2014-02-01 18:27:00,
2014-02-01 11:42:00,12.7,6.0,30.34,WNW,289,0.0,2.0,74,0.00,,,0.00,weatherlink.com 1.10,2014-02-01 18:42:00,
2014-02-01 11:57:00,12.6,6.0,30.33,West,274,0.0,1.0,75,0.00,,,0.00,weatherlink.com 1.10,2014-02-01 18:57:00,
2014-02-01 12:12:00,14.5,8.0,30.33,WNW,283,0.0,2.0,74,0.00,,,0.00,weatherlink.com 1.10,2014-02-01 19:12:00,
2014-02-01 12:27:00,14.6,7.0,30.33,West,277,3.0,4.0,71,0.00,,,0.00,weatherlink.com 1.10,2014-02-01 19:27:00,
2014-02-01 12:42:00,14.9,8.0,30.33,NNE,25,0.0,2.0,73,0.00,,,0.00,weatherlink.com 1.10,2014-02-01 19:42:00,
2014-02-01 12:57:00,14.9,7.0,30.33,West,273,0.0,3.0,72,0.00,,,0.00,weatherlink.com 1.10,2014-02-01 19:57:00,
2014-02-01 13:12:00,14.2,6.0,30.33,West,260,0.0,5.0,70,0.00,,,0.00,weatherlink.com 1.10,2014-02-01 20:12:00,
2014-02-01 13:27:00,15.9,7.0,30.32,NW,326,0.0,2.0,69,0.00,,,0.00,weatherlink.com 1.10,2014-02-01 20:27:00,
2014-02-01 13:42:00,18.7,9.0,30.32,NNW,335,1.0,4.0,67,0.00,,,0.00,weatherlink.com 1.10,2014-02-01 20:42:00,
2014-02-01 13:57:00,15.9,6.0,30.32,NNE,15,2.0,6.0,64,0.00,,,0.00,weatherlink.com 1.10,2014-02-01 20:57:00,
2014-02-01 14:12:00,19.2,10.0,30.32,NW,304,1.0,4.0,68,0.00,,,0.00,weatherlink.com 1.10,2014-02-01 21:12:00,
2014-02-01 14:27:00,19.2,8.0,30.32,West,263,2.0,8.0,62,0.00,,,0.00,weatherlink.com 1.10,2014-02-01 21:27:00,
2014-02-01 14:43:00,20.0,6.0,30.33,WSW,257,0.0,8.0,54,0.00,,,0.00,weatherlink.com 1.10,2014-02-01 21:43:00,
2014-02-01 14:58:00,19.4,6.0,30.34,WSW,250,2.0,6.0,57,0.00,,,0.00,weatherlink.com 1.10,2014-02-01 21:58:00,
2014-02-01 15:13:00,19.6,7.0,30.35,NNW,343,1.0,3.0,58,0.00,,,0.00,weatherlink.com 1.10,2014-02-01 22:13:00,
2014-02-01 15:28:00,17.0,6.0,30.35,South,172,0.0,6.0,61,0.00,,,0.00,weatherlink.com 1.10,2014-02-01 22:28:00,
2014-02-01 15:43:00,16.0,4.0,30.36,West,270,0.0,4.0,60,0.00,,,0.00,weatherlink.com 1.10,2014-02-01 22:43:00,
2014-02-01 15:58:00,14.2,5.0,30.36,WSW,253,1.0,4.0,66,0.00,,,0.00,weatherlink.com 1.10,2014-02-01 22:58:00,
2014-02-01 16:13:00,13.3,5.0,30.37,WNW,289,1.0,4.0,68,0.00,,,0.00,weatherlink.com 1.10,2014-02-01 23:13:00,
2014-02-01 16:28:00,12.5,5.0,30.38,WSW,253,0.0,3.0,71,0.00,,,0.00,weatherlink.com 1.10,2014-02-01 23:28:00,
2014-02-01 16:43:00,11.4,6.0,30.38,WSW,246,0.0,3.0,77,0.00,,,0.00,weatherlink.com 1.10,2014-02-01 23:43:00,
2014-02-01 16:58:00,11.1,7.0,30.40,WSW,243,0.0,1.0,82,0.00,,,0.00,weatherlink.com 1.10,2014-02-01 23:58:00,
2014-02-01 17:13:00,10.7,6.0,30.40,NNW,329,1.0,2.0,80,0.00,,,0.00,weatherlink.com 1.10,2014-02-02 00:13:00,
2014-02-01 17:28:00,10.3,6.0,30.41,WSW,249,3.0,3.0,82,0.00,,,0.00,weatherlink.com 1.10,2014-02-02 00:28:00,
2014-02-01 17:43:00,10.0,6.0,30.42,WSW,241,0.0,2.0,82,0.00,,,0.00,weatherlink.com 1.10,2014-02-02 00:43:00,
2014-02-01 17:58:00,9.4,5.0,30.42,SW,235,1.0,2.0,83,0.00,,,0.00,weatherlink.com 1.10,2014-02-02 00:58:00,
2014-02-01 18:13:00,9.3,5.0,30.43,West,259,0.0,2.0,84,0.00,,,0.00,weatherlink.com 1.10,2014-02-02 01:13:00,
2014-02-01 18:28:00,9.2,5.0,30.44,North,11,1.0,2.0,84,0.00,,,0.00,weatherlink.com 1.10,2014-02-02 01:28:00,
2014-02-01 18:43:00,9.6,6.0,30.45,North,352,0.0,3.0,84,0.00,,,0.00,weatherlink.com 1.10,2014-02-02 01:43:00,
2014-02-01 18:58:00,9.6,6.0,30.46,WSW,239,1.0,4.0,84,0.00,,,0.00,weatherlink.com 1.10,2014-02-02 01:58:00,
2014-02-01 19:13:00,9.8,6.0,30.47,North,359,0.0,4.0,83,0.00,,,0.00,weatherlink.com 1.10,2014-02-02 02:13:00,
2014-02-01 19:28:00,9.7,6.0,30.48,WSW,250,0.0,2.0,84,0.00,,,0.00,weatherlink.com 1.10,2014-02-02 02:28:00,
2014-02-01 19:43:00,9.6,5.0,30.48,SW,231,0.0,2.0,83,0.00,,,0.00,weatherlink.com 1.10,2014-02-02 02:43:00,
2014-02-01 19:58:00,9.6,6.0,30.48,WNW,285,1.0,2.0,84,0.00,,,0.00,weatherlink.com 1.10,2014-02-02 02:58:00,
2014-02-01 20:13:00,9.4,5.0,30.48,West,264,0.0,1.0,83,0.00,,,0.00,weatherlink.com 1.10,2014-02-02 03:13:00,
2014-02-01 20:28:00,9.4,5.0,30.49,NNE,23,0.0,4.0,83,0.00,,,0.00,weatherlink.com 1.10,2014-02-02 03:28:00,
2014-02-01 20:43:00,9.1,5.0,30.49,SW,229,0.0,3.0,83,0.00,,,0.00,weatherlink.com 1.10,2014-02-02 03:43:00,
2014-02-01 20:58:00,9.1,5.0,30.50,SW,235,1.0,2.0,84,0.00,,,0.00,weatherlink.com 1.10,2014-02-02 03:58:00,
2014-02-01 21:13:00,8.9,5.0,30.50,WNW,284,0.0,3.0,83,0.00,,,0.00,weatherlink.com 1.10,2014-02-02 04:13:00,
2014-02-01 21:28:00,8.7,5.0,30.50,West,274,0.0,1.0,83,0.00,,,0.00,weatherlink.com 1.10,2014-02-02 04:28:00,
2014-02-01 21:44:00,8.5,4.0,30.51,WSW,252,0.0,5.0,83,0.00,,,0.00,weatherlink.com 1.10,2014-02-02 04:44:00,
2014-02-01 21:59:00,8.3,4.0,30.51,NW,308,0.0,1.0,84,0.00,,,0.00,weatherlink.com 1.10,2014-02-02 04:59:00,
2014-02-01 22:14:00,8.2,4.0,30.51,WNW,298,0.0,1.0,83,0.00,,,0.00,weatherlink.com 1.10,2014-02-02 05:14:00,
2014-02-01 22:29:00,7.5,3.0,30.52,West,262,0.0,2.0,83,0.00,,,0.00,weatherlink.com 1.10,2014-02-02 05:29:00,
2014-02-01 22:44:00,7.0,3.0,30.51,West,271,0.0,3.0,84,0.00,,,0.00,weatherlink.com 1.10,2014-02-02 05:44:00,
2014-02-01 22:59:00,6.3,3.0,30.51,WNW,286,0.0,1.0,84,0.00,,,0.00,weatherlink.com 1.10,2014-02-02 05:59:00,
2014-02-01 23:14:00,5.8,2.0,30.51,SW,224,0.0,1.0,84,0.00,,,0.00,weatherlink.com 1.10,2014-02-02 06:14:00,
2014-02-01 23:29:00,5.4,2.0,30.51,West,264,0.0,1.0,84,0.00,,,0.00,weatherlink.com 1.10,2014-02-02 06:29:00,
2014-02-01 23:44:00,5.1,2.0,30.51,SW,236,0.0,1.0,86,0.00,,,0.00,weatherlink.com 1.10,2014-02-02 06:44:00,
2014-02-01 23:59:00,4.6,1.0,30.51,NNW,341,0.0,1.0,85,0.00,,,0.00,weatherlink.com 1.10,2014-02-02 06:59:00,